Terminal Aerodrome Forecast
Issued by NWS Wichita, KS

Home | Current Version | Previous Version | Graphics & Text | Print | Product List | Glossary On
Versions: 1 2 3 4 5 6 7 8 9 10 11 12 13 14 15 16 17
000
FTUS43 KICT 251137
TAFICT
TAF
KICT 251137Z 2512/2612 32023G32KT P6SM SCT060 BKN100
     FM251500 33027G38KT P6SM SCT030 BKN070
     FM252200 34016KT P6SM SCT040 BKN080
     FM260100 33007KT P6SM SCT150
     FM260700 25006KT P6SM SCT250=

USA.gov is the U.S. government's official web portal to all federal, state and local government web resources and services.